Time;durP1;ratioP1;P1;durP2;ratioP2;P2;SDS_P1;SDS_P2;PMS_P1;PMS_P2;Temp;Humidity;BMP_temperature;BMP_pressure;BME280_temperature;BME280_humidity;BME280_pressure;Samples;Min_cycle;Max_cycle;Signal;HPM_P1;HPM_P2
2023/10/19 00:01:08;;;;;;;12.32;9.02;;;;;;;;;;5026322;28;20095;-78
2023/10/19 00:03:34;;;;;;;14.05;9.13;;;;;;;;;;5040078;28;21018;-79
2023/10/19 00:05:59;;;;;;;13.88;9.35;;;;;;;;;;5035800;28;20041;-79
2023/10/19 00:08:25;;;;;;;19.05;9.65;;;;;;;;;;5022233;28;20456;-79
2023/10/19 00:11:08;;;;;;;13.50;9.10;;;;;;;;;;5041048;28;20071;-79
2023/10/19 00:13:40;;;;;;;14.73;9.38;;;;;;;;;;5044032;28;20529;-79
2023/10/19 00:16:19;;;;;;;16.70;9.63;;;;;;;;;;5045941;28;20148;-78
2023/10/19 00:18:48;;;;;;;20.13;10.02;;;;;;;;;;5046262;28;20124;-78
2023/10/19 00:21:20;;;;;;;14.10;9.75;;;;;;;;;;5050820;28;20025;-78
2023/10/19 00:23:51;;;;;;;13.80;9.52;;;;;;;;;;5022952;28;20022;-77
2023/10/19 00:26:20;;;;;;;15.60;11.05;;;;;;;;;;5042661;28;20075;-79
2023/10/19 00:28:58;;;;;;;20.50;12.57;;;;;;;;;;5043158;28;20029;-79
2023/10/19 00:31:24;;;;;;;23.92;12.40;;;;;;;;;;5018662;28;20918;-79
2023/10/19 00:33:54;;;;;;;18.67;11.93;;;;;;;;;;5049416;28;20124;-78
2023/10/19 00:36:20;;;;;;;18.25;11.38;;;;;;;;;;5030314;28;20144;-78
2023/10/19 00:43:49;;;;;;;22.60;12.60;;;;;;;;;;5048789;28;21454;-78
2023/10/19 00:48:46;;;;;;;15.02;9.38;;;;;;;;;;5046784;28;20116;-78
2023/10/19 00:54:26;;;;;;;10.25;8.40;;;;;;;;;;5009257;28;20045;-80
2023/10/19 00:56:51;;;;;;;10.88;7.82;;;;;;;;;;5037597;28;20037;-78
2023/10/19 00:59:30;;;;;;;11.90;7.38;;;;;;;;;;5044755;28;20153;-79
2023/10/19 01:04:42;;;;;;;10.90;6.47;;;;;;;;;;5040215;28;20044;-79
2023/10/19 01:07:45;;;;;;;6.53;5.80;;;;;;;;;;5046376;28;20357;-79
2023/10/19 01:10:11;;;;;;;6.85;5.35;;;;;;;;;;5049192;28;20044;-79
2023/10/19 01:12:40;;;;;;;8.60;6.03;;;;;;;;;;5043372;28;20037;-81
2023/10/19 01:15:51;;;;;;;7.35;5.43;;;;;;;;;;5027251;28;20079;-80
2023/10/19 01:17:58;;;;;;;7.80;5.75;;;;;;;;;;5032118;28;20025;-79
2023/10/19 01:23:44;;;;;;;6.30;5.63;;;;;;;;;;5044236;28;21005;-80
2023/10/19 01:28:22;;;;;;;6.85;5.18;;;;;;;;;;5032841;28;20116;-79
2023/10/19 01:30:51;;;;;;;6.45;4.90;;;;;;;;;;5041557;28;20043;-79
2023/10/19 01:33:18;;;;;;;8.82;5.15;;;;;;;;;;5042523;28;20025;-79
2023/10/19 01:38:31;;;;;;;6.28;5.07;;;;;;;;;;5045371;28;20093;-78
2023/10/19 01:41:19;;;;;;;7.38;5.60;;;;;;;;;;5040920;28;20036;-78
2023/10/19 01:43:48;;;;;;;7.53;4.93;;;;;;;;;;5045825;28;20084;-78
2023/10/19 01:46:25;;;;;;;5.35;4.75;;;;;;;;;;5045101;28;20057;-78
2023/10/19 01:48:56;;;;;;;5.55;4.80;;;;;;;;;;5048980;28;20301;-78
2023/10/19 01:51:28;;;;;;;7.40;4.80;;;;;;;;;;5047302;28;20021;-79
2023/10/19 01:53:58;;;;;;;5.20;4.13;;;;;;;;;;5018380;28;20406;-80
2023/10/19 01:56:24;;;;;;;5.57;4.70;;;;;;;;;;5023713;28;20036;-79
2023/10/19 01:58:54;;;;;;;4.47;4.03;;;;;;;;;;5038913;28;20029;-79
2023/10/19 02:01:20;;;;;;;5.38;3.50;;;;;;;;;;5041768;28;20033;-79
2023/10/19 02:03:47;;;;;;;5.50;3.38;;;;;;;;;;5045180;28;20029;-79
2023/10/19 02:06:19;;;;;;;3.88;3.47;;;;;;;;;;5042430;28;20170;-79
2023/10/19 02:08:59;;;;;;;4.80;3.75;;;;;;;;;;5043468;28;20018;-78
2023/10/19 02:11:25;;;;;;;4.05;3.70;;;;;;;;;;5046053;28;20472;-78
2023/10/19 02:13:55;;;;;;;3.72;3.25;;;;;;;;;;5047259;28;20041;-78
2023/10/19 02:16:22;;;;;;;6.03;3.50;;;;;;;;;;5046238;28;20061;-78
2023/10/19 02:18:49;;;;;;;6.13;3.80;;;;;;;;;;5048037;28;20048;-78
2023/10/19 02:21:21;;;;;;;5.10;3.15;;;;;;;;;;5043555;28;20106;-79
2023/10/19 02:23:50;;;;;;;5.35;3.88;;;;;;;;;;5043476;28;20029;-79
2023/10/19 02:26:16;;;;;;;4.88;3.78;;;;;;;;;;5044034;28;20037;-78
2023/10/19 02:28:43;;;;;;;3.75;3.40;;;;;;;;;;5045351;28;20037;-77
2023/10/19 02:31:15;;;;;;;4.43;2.88;;;;;;;;;;5021353;28;20044;-79
2023/10/19 02:33:51;;;;;;;4.38;3.20;;;;;;;;;;5043359;28;20025;-79
2023/10/19 02:36:19;;;;;;;4.00;3.20;;;;;;;;;;5047073;28;20037;-78
2023/10/19 02:38:51;;;;;;;4.90;3.47;;;;;;;;;;5040783;28;20035;-78
2023/10/19 02:41:19;;;;;;;3.40;3.10;;;;;;;;;;5038248;28;20103;-78
2023/10/19 02:43:56;;;;;;;9.15;3.40;;;;;;;;;;5018562;28;20779;-78
2023/10/19 02:46:23;;;;;;;4.15;2.65;;;;;;;;;;5034548;28;20045;-78
2023/10/19 02:48:49;;;;;;;4.68;2.53;;;;;;;;;;5040947;28;20049;-78
2023/10/19 02:51:15;;;;;;;2.60;2.40;;;;;;;;;;5045101;28;20557;-78
2023/10/19 02:53:40;;;;;;;5.20;3.50;;;;;;;;;;5047872;28;20060;-78
2023/10/19 02:56:13;;;;;;;3.78;2.92;;;;;;;;;;5048178;28;20041;-78
2023/10/19 02:58:42;;;;;;;3.05;2.75;;;;;;;;;;5050689;28;20057;-78
2023/10/19 03:01:31;;;;;;;4.20;2.90;;;;;;;;;;5045117;28;20033;-79
2023/10/19 03:03:59;;;;;;;3.08;2.65;;;;;;;;;;5048459;28;20123;-78
2023/10/19 03:06:26;;;;;;;3.50;2.67;;;;;;;;;;5041813;28;20082;-78
2023/10/19 03:08:57;;;;;;;3.58;2.70;;;;;;;;;;5047239;28;20451;-79
2023/10/19 03:11:27;;;;;;;2.38;2.17;;;;;;;;;;5028711;28;20529;-79
2023/10/19 03:13:52;;;;;;;7.65;2.45;;;;;;;;;;5044784;28;20137;-79
2023/10/19 03:16:19;;;;;;;3.95;2.30;;;;;;;;;;5042856;28;20742;-77
2023/10/19 03:18:44;;;;;;;2.63;2.40;;;;;;;;;;5050412;28;20041;-79
2023/10/19 03:21:16;;;;;;;2.90;2.58;;;;;;;;;;5046418;28;20025;-78
2023/10/19 03:23:41;;;;;;;4.45;3.00;;;;;;;;;;5052822;28;20033;-78
2023/10/19 03:29:01;;;;;;;2.38;2.15;;;;;;;;;;5042085;28;20094;-81
2023/10/19 03:31:32;;;;;;;4.50;2.20;;;;;;;;;;5050202;28;20032;-81
2023/10/19 03:33:59;;;;;;;4.55;2.20;;;;;;;;;;5051577;28;20033;-80
2023/10/19 03:36:25;;;;;;;1.98;1.77;;;;;;;;;;5054046;28;20033;-81
2023/10/19 03:38:53;;;;;;;5.53;2.60;;;;;;;;;;5046098;28;20025;-79
2023/10/19 03:41:21;;;;;;;4.18;2.65;;;;;;;;;;5054438;28;20029;-81
2023/10/19 03:43:48;;;;;;;5.07;3.13;;;;;;;;;;5028061;28;20412;-81
2023/10/19 03:46:30;;;;;;;5.07;2.60;;;;;;;;;;5056131;28;20140;-80
2023/10/19 03:49:00;;;;;;;5.10;2.35;;;;;;;;;;5052508;28;20061;-81
2023/10/19 03:51:26;;;;;;;3.47;2.75;;;;;;;;;;5058770;28;20025;-78
2023/10/19 03:53:58;;;;;;;4.28;3.15;;;;;;;;;;5036939;28;20087;-80
2023/10/19 03:56:24;;;;;;;3.50;3.20;;;;;;;;;;5050158;28;20443;-77
2023/10/19 03:58:50;;;;;;;3.30;3.00;;;;;;;;;;5045419;28;20036;-80
2023/10/19 04:01:19;;;;;;;3.65;3.35;;;;;;;;;;5046680;28;20030;-80
2023/10/19 04:03:44;;;;;;;2.97;2.70;;;;;;;;;;5053537;28;20088;-79
2023/10/19 04:06:14;;;;;;;2.95;2.60;;;;;;;;;;5050074;28;20064;-80
2023/10/19 04:08:40;;;;;;;4.68;2.92;;;;;;;;;;5055275;28;20043;-80
2023/10/19 04:11:08;;;;;;;3.25;2.95;;;;;;;;;;5044971;28;20097;-78
2023/10/19 04:13:38;;;;;;;4.95;2.80;;;;;;;;;;5048704;28;20032;-81
2023/10/19 04:16:10;;;;;;;2.58;2.38;;;;;;;;;;5053153;28;20044;-80
2023/10/19 04:18:43;;;;;;;4.32;2.63;;;;;;;;;;5038396;28;20447;-78
2023/10/19 04:21:08;;;;;;;3.20;2.33;;;;;;;;;;5047544;28;20033;-79
2023/10/19 04:23:34;;;;;;;3.30;2.58;;;;;;;;;;5040470;28;20048;-78
2023/10/19 04:26:04;;;;;;;2.88;2.55;;;;;;;;;;5041305;28;20037;-80
2023/10/19 04:28:38;;;;;;;3.00;2.53;;;;;;;;;;5038195;28;20045;-80
2023/10/19 04:31:06;;;;;;;2.20;2.00;;;;;;;;;;5031610;28;20093;-79
2023/10/19 04:33:32;;;;;;;4.28;2.30;;;;;;;;;;5022984;28;20041;-80
2023/10/19 04:35:59;;;;;;;3.55;2.20;;;;;;;;;;5038929;28;20481;-77
2023/10/19 04:38:25;;;;;;;2.58;2.20;;;;;;;;;;5039395;28;20428;-80
2023/10/19 04:40:50;;;;;;;2.67;2.45;;;;;;;;;;5041124;28;20112;-79
2023/10/19 04:43:21;;;;;;;7.68;2.47;;;;;;;;;;5045343;23;20164;-79
2023/10/19 04:45:46;;;;;;;3.03;2.15;;;;;;;;;;5005068;28;20539;-77
2023/10/19 04:48:12;;;;;;;4.20;2.20;;;;;;;;;;5026159;28;20021;-77
2023/10/19 04:50:37;;;;;;;3.13;2.30;;;;;;;;;;5026586;28;20485;-77
2023/10/19 04:53:02;;;;;;;4.85;2.45;;;;;;;;;;5017133;28;20029;-76
2023/10/19 04:55:31;;;;;;;11.52;1.92;;;;;;;;;;5020039;28;20049;-77
2023/10/19 04:57:56;;;;;;;5.57;2.30;;;;;;;;;;5006958;28;20060;-77
2023/10/19 05:00:24;;;;;;;5.38;2.05;;;;;;;;;;5023182;28;20025;-76
2023/10/19 05:02:51;;;;;;;4.03;2.22;;;;;;;;;;5024121;28;20021;-76
2023/10/19 05:05:17;;;;;;;6.28;2.17;;;;;;;;;;5019315;28;20033;-76
2023/10/19 05:07:42;;;;;;;2.20;2.00;;;;;;;;;;5024346;28;20406;-77
2023/10/19 05:10:08;;;;;;;3.38;1.83;;;;;;;;;;5022454;28;20120;-77
2023/10/19 05:12:34;;;;;;;3.63;2.15;;;;;;;;;;5025442;28;20063;-77
2023/10/19 05:14:59;;;;;;;1.77;1.65;;;;;;;;;;5019545;28;20032;-77
2023/10/19 05:17:24;;;;;;;2.08;1.88;;;;;;;;;;5020101;28;20095;-76
2023/10/19 05:19:50;;;;;;;3.10;1.85;;;;;;;;;;5003562;28;20045;-76
2023/10/19 05:22:16;;;;;;;5.60;1.75;;;;;;;;;;5025033;28;20037;-77
2023/10/19 05:24:42;;;;;;;3.65;2.00;;;;;;;;;;5017660;28;20666;-76
2023/10/19 05:27:09;;;;;;;2.30;1.75;;;;;;;;;;5021728;28;20033;-77
2023/10/19 05:29:35;;;;;;;2.00;1.90;;;;;;;;;;5007513;28;20808;-76
2023/10/19 05:32:02;;;;;;;2.00;1.75;;;;;;;;;;5025867;28;20038;-77
2023/10/19 05:34:29;;;;;;;2.05;1.83;;;;;;;;;;5001664;28;20065;-77
2023/10/19 05:36:58;;;;;;;2.92;1.88;;;;;;;;;;5004533;28;20097;-77
2023/10/19 05:39:27;;;;;;;3.67;1.85;;;;;;;;;;5017945;28;20040;-76
2023/10/19 05:41:53;;;;;;;2.55;1.80;;;;;;;;;;5023341;28;20089;-76
2023/10/19 05:44:19;;;;;;;1.65;1.40;;;;;;;;;;5022848;28;20034;-77
2023/10/19 05:46:44;;;;;;;3.75;1.73;;;;;;;;;;5016879;28;20033;-77
2023/10/19 05:49:09;;;;;;;1.65;1.55;;;;;;;;;;5017300;28;20057;-77
2023/10/19 05:51:35;;;;;;;6.22;1.83;;;;;;;;;;5032548;28;20685;-77
2023/10/19 05:54:03;;;;;;;2.92;1.60;;;;;;;;;;4998248;28;20029;-77
2023/10/19 05:56:30;;;;;;;3.45;1.73;;;;;;;;;;5028115;28;20049;-77
2023/10/19 05:58:56;;;;;;;1.80;1.70;;;;;;;;;;5013815;28;20061;-76
2023/10/19 06:01:22;;;;;;;2.10;1.90;;;;;;;;;;5013640;28;20096;-77
2023/10/19 06:03:47;;;;;;;2.17;2.00;;;;;;;;;;5012533;28;20077;-77
2023/10/19 06:06:12;;;;;;;3.60;1.98;;;;;;;;;;5013707;28;20386;-76
2023/10/19 06:08:38;;;;;;;1.65;1.55;;;;;;;;;;5002690;28;20346;-76
2023/10/19 06:11:04;;;;;;;4.78;1.85;;;;;;;;;;5018955;28;20091;-77
2023/10/19 06:13:29;;;;;;;2.90;2.08;;;;;;;;;;4998929;28;20033;-76
2023/10/19 06:15:55;;;;;;;2.45;1.70;;;;;;;;;;5020316;28;20451;-76
2023/10/19 06:18:20;;;;;;;3.47;1.70;;;;;;;;;;4995810;28;20077;-77
2023/10/19 06:20:46;;;;;;;12.00;2.20;;;;;;;;;;5028808;28;20080;-78
2023/10/19 06:23:11;;;;;;;16.13;1.52;;;;;;;;;;5021168;28;20046;-75
2023/10/19 06:25:37;;;;;;;1.73;1.63;;;;;;;;;;5028757;28;20040;-77
2023/10/19 06:28:04;;;;;;;4.05;1.85;;;;;;;;;;5019842;28;20106;-77
2023/10/19 06:30:30;;;;;;;1.67;1.58;;;;;;;;;;5021262;28;20580;-77
2023/10/19 06:33:00;;;;;;;5.30;2.25;;;;;;;;;;5026028;28;20074;-76
2023/10/19 06:35:26;;;;;;;2.13;1.92;;;;;;;;;;5024978;28;20069;-77
2023/10/19 06:37:53;;;;;;;6.75;2.30;;;;;;;;;;5011243;28;20492;-77
2023/10/19 06:40:18;;;;;;;3.25;1.70;;;;;;;;;;5030516;28;20607;-77
2023/10/19 06:42:47;;;;;;;2.58;1.77;;;;;;;;;;5003990;28;20076;-77
2023/10/19 06:45:14;;;;;;;4.80;2.00;;;;;;;;;;5011328;28;20437;-77
2023/10/19 06:47:52;;;;;;;1.98;1.83;;;;;;;;;;5034808;28;20109;-77
2023/10/19 06:50:22;;;;;;;2.78;1.80;;;;;;;;;;5030325;28;20030;-78
2023/10/19 06:52:48;;;;;;;2.20;2.03;;;;;;;;;;5030433;28;20026;-77
2023/10/19 06:55:19;;;;;;;4.85;2.05;;;;;;;;;;5030551;28;20060;-77
2023/10/19 06:57:47;;;;;;;2.53;1.65;;;;;;;;;;5031467;28;20456;-78
2023/10/19 07:00:19;;;;;;;1.77;1.63;;;;;;;;;;5021044;28;20025;-76
2023/10/19 07:02:46;;;;;;;6.25;1.88;;;;;;;;;;5031538;28;20045;-76
2023/10/19 07:05:13;;;;;;;5.15;2.17;;;;;;;;;;5026120;28;20061;-77
2023/10/19 07:07:41;;;;;;;6.55;2.00;;;;;;;;;;5028715;28;20034;-78
2023/10/19 07:10:08;;;;;;;2.63;2.05;;;;;;;;;;5024090;28;20117;-77
2023/10/19 07:12:34;;;;;;;3.58;2.05;;;;;;;;;;5025890;28;20041;-76
2023/10/19 07:15:00;;;;;;;4.43;2.42;;;;;;;;;;5010721;28;20436;-78
2023/10/19 07:17:27;;;;;;;3.90;2.78;;;;;;;;;;5024825;28;20034;-78
2023/10/19 07:19:52;;;;;;;2.58;2.20;;;;;;;;;;5018449;28;20081;-77
2023/10/19 07:22:22;;;;;;;3.65;2.20;;;;;;;;;;5037171;28;20037;-77
2023/10/19 07:24:47;;;;;;;2.33;2.13;;;;;;;;;;5027249;28;20025;-78
2023/10/19 07:27:18;;;;;;;6.65;2.33;;;;;;;;;;5029778;28;20489;-78
2023/10/19 07:29:47;;;;;;;3.45;1.85;;;;;;;;;;5008182;28;20060;-78
2023/10/19 07:32:13;;;;;;;3.60;1.90;;;;;;;;;;5020280;28;20126;-78
2023/10/19 07:34:39;;;;;;;2.47;1.52;;;;;;;;;;5019602;28;20045;-78
2023/10/19 07:37:05;;;;;;;5.35;1.85;;;;;;;;;;5021051;28;20121;-78
2023/10/19 07:39:30;;;;;;;6.88;1.77;;;;;;;;;;5003395;28;20022;-78
2023/10/19 07:41:56;;;;;;;4.32;1.75;;;;;;;;;;5013375;28;20393;-78
2023/10/19 07:44:22;;;;;;;3.50;1.65;;;;;;;;;;5022996;28;20042;-78
2023/10/19 07:46:47;;;;;;;3.42;1.90;;;;;;;;;;5027405;28;20042;-77
2023/10/19 07:49:14;;;;;;;5.15;2.10;;;;;;;;;;5012651;28;20037;-78
2023/10/19 07:51:44;;;;;;;3.58;2.00;;;;;;;;;;5028025;28;20331;-78
2023/10/19 07:54:09;;;;;;;8.50;2.30;;;;;;;;;;5028037;28;20021;-78
2023/10/19 07:56:35;;;;;;;2.10;1.90;;;;;;;;;;5029966;28;20509;-78
2023/10/19 07:59:00;;;;;;;5.40;2.25;;;;;;;;;;5024186;28;20041;-78
2023/10/19 08:01:25;;;;;;;4.40;2.28;;;;;;;;;;5027426;28;20029;-78
2023/10/19 08:03:51;;;;;;;4.20;2.53;;;;;;;;;;5026965;28;20057;-78
2023/10/19 08:06:17;;;;;;;5.72;2.58;;;;;;;;;;5007128;28;20029;-78
2023/10/19 08:08:42;;;;;;;3.50;2.08;;;;;;;;;;5025459;28;20021;-78
2023/10/19 08:11:08;;;;;;;2.17;1.90;;;;;;;;;;5009128;28;20038;-78
2023/10/19 08:13:33;;;;;;;3.53;2.00;;;;;;;;;;5024656;28;20044;-78
2023/10/19 08:15:59;;;;;;;5.05;2.25;;;;;;;;;;5029378;28;20034;-77
2023/10/19 08:18:24;;;;;;;2.22;2.03;;;;;;;;;;5022196;28;20034;-77
2023/10/19 08:20:50;;;;;;;2.53;2.28;;;;;;;;;;5030611;28;20100;-78
2023/10/19 08:23:16;;;;;;;4.57;2.10;;;;;;;;;;5021721;28;20041;-78
2023/10/19 08:25:42;;;;;;;5.28;1.83;;;;;;;;;;5022379;28;20038;-78
2023/10/19 08:28:08;;;;;;;4.57;2.10;;;;;;;;;;5027728;28;20410;-78
2023/10/19 08:30:34;;;;;;;5.68;2.20;;;;;;;;;;5022041;28;20032;-77
2023/10/19 08:32:59;;;;;;;2.72;2.00;;;;;;;;;;5019403;28;20501;-78
2023/10/19 08:35:25;;;;;;;7.30;2.28;;;;;;;;;;5009209;28;20133;-78
2023/10/19 08:37:56;;;;;;;2.47;1.52;;;;;;;;;;5019499;28;20030;-77
2023/10/19 08:40:23;;;;;;;2.58;1.83;;;;;;;;;;5019606;28;20048;-78
2023/10/19 08:42:48;;;;;;;4.07;1.90;;;;;;;;;;5023442;28;20517;-77
2023/10/19 08:45:14;;;;;;;7.95;2.42;;;;;;;;;;5022054;28;20041;-76
2023/10/19 08:48:00;;;;;;;2.38;2.17;;;;;;;;;;5006327;28;20492;-77
2023/10/19 08:50:28;;;;;;;4.00;2.15;;;;;;;;;;5005728;28;20044;-76
2023/10/19 08:52:55;;;;;;;4.43;2.30;;;;;;;;;;5023074;28;20057;-76
2023/10/19 08:55:20;;;;;;;6.70;2.25;;;;;;;;;;5010033;28;20044;-77
2023/10/19 08:57:50;;;;;;;3.70;1.98;;;;;;;;;;5015248;28;20109;-76
2023/10/19 09:00:19;;;;;;;3.88;2.00;;;;;;;;;;5022275;28;20186;-76
2023/10/19 09:02:45;;;;;;;2.92;2.30;;;;;;;;;;5011807;28;20023;-76
2023/10/19 09:05:19;;;;;;;4.82;2.00;;;;;;;;;;5021915;28;20087;-77
2023/10/19 09:07:47;;;;;;;;;;;;;;;;;;5026254;28;20522;-76
2023/10/19 09:10:16;;;;;;;3.67;2.25;;;;;;;;;;5032803;28;19924;-77
2023/10/19 09:12:42;;;;;;;4.75;2.50;;;;;;;;;;5016158;28;20041;-76
2023/10/19 09:15:22;;;;;;;6.38;2.53;;;;;;;;;;5021351;28;20079;-77
2023/10/19 09:17:49;;;;;;;5.57;2.30;;;;;;;;;;5013449;28;20128;-77
2023/10/19 09:20:18;;;;;;;6.07;2.92;;;;;;;;;;5032157;28;20120;-77
2023/10/19 09:22:44;;;;;;;4.30;2.15;;;;;;;;;;5026119;28;20545;-77
2023/10/19 09:25:09;;;;;;;2.50;2.08;;;;;;;;;;5013369;28;20038;-78
2023/10/19 09:27:35;;;;;;;3.33;2.45;;;;;;;;;;5024172;28;20033;-79
2023/10/19 09:30:02;;;;;;;3.72;2.20;;;;;;;;;;5033641;28;20040;-77
2023/10/19 09:32:29;;;;;;;4.15;2.40;;;;;;;;;;5020184;28;20367;-77
2023/10/19 09:34:55;;;;;;;8.38;2.80;;;;;;;;;;5017253;28;20057;-75
2023/10/19 09:37:21;;;;;;;5.18;3.35;;;;;;;;;;5021252;28;20056;-79
2023/10/19 09:39:46;;;;;;;9.27;4.70;;;;;;;;;;5003722;28;20026;-76
2023/10/19 09:42:16;;;;;;;10.32;5.60;;;;;;;;;;5018416;28;20121;-77
2023/10/19 09:44:54;;;;;;;12.05;5.63;;;;;;;;;;5019624;28;20025;-77
2023/10/19 09:47:30;;;;;;;7.63;4.47;;;;;;;;;;5018579;28;20033;-76
2023/10/19 09:49:57;;;;;;;5.53;3.20;;;;;;;;;;5004254;28;20037;-77
2023/10/19 09:52:24;;;;;;;3.67;2.65;;;;;;;;;;5020377;28;20034;-77
2023/10/19 09:55:13;;;;;;;5.22;2.00;;;;;;;;;;5026096;28;20421;-76
2023/10/19 09:58:02;;;;;;;8.80;2.60;;;;;;;;;;5030589;28;20490;-77
2023/10/19 10:00:31;;;;;;;4.47;2.00;;;;;;;;;;5012480;28;20082;-76
2023/10/19 10:02:57;;;;;;;6.00;2.00;;;;;;;;;;5014867;28;20533;-77
2023/10/19 10:05:37;;;;;;;3.25;1.85;;;;;;;;;;5023292;28;20072;-78
2023/10/19 10:08:18;;;;;;;5.15;1.80;;;;;;;;;;5004287;28;20034;-76
2023/10/19 10:10:48;;;;;;;3.88;1.77;;;;;;;;;;5021427;28;20514;-77
2023/10/19 10:13:30;;;;;;;1.95;1.50;;;;;;;;;;5026613;28;20053;-79
2023/10/19 10:15:57;;;;;;;1.77;1.48;;;;;;;;;;5025473;28;20125;-77
2023/10/19 10:18:32;;;;;;;7.25;1.60;;;;;;;;;;5022696;28;20029;-78
2023/10/19 10:21:10;;;;;;;3.67;1.15;;;;;;;;;;5028015;28;20413;-77
2023/10/19 10:23:43;;;;;;;3.90;1.40;;;;;;;;;;5009434;28;20050;-78
2023/10/19 10:26:13;;;;;;;3.25;1.48;;;;;;;;;;5029525;28;20042;-76
2023/10/19 10:28:39;;;;;;;2.30;1.30;;;;;;;;;;5016880;28;20266;-77
2023/10/19 10:31:13;;;;;;;2.03;1.50;;;;;;;;;;5034804;28;20040;-76
2023/10/19 10:33:54;;;;;;;1.92;1.42;;;;;;;;;;5028266;28;20026;-77
2023/10/19 10:36:20;;;;;;;2.78;1.45;;;;;;;;;;5023902;28;20417;-77
2023/10/19 10:38:48;;;;;;;2.45;1.30;;;;;;;;;;5023254;28;20139;-76
2023/10/19 10:41:27;;;;;;;1.23;1.13;;;;;;;;;;5023518;28;20068;-78
2023/10/19 10:43:57;;;;;;;1.33;1.15;;;;;;;;;;5061847;23;20048;-86
2023/10/19 10:46:29;;;;;;;1.35;1.20;;;;;;;;;;5051753;28;20082;-86
2023/10/19 10:48:55;;;;;;;2.65;1.27;;;;;;;;;;5042114;28;20032;-86
2023/10/19 10:51:22;;;;;;;1.40;1.13;;;;;;;;;;5050711;28;20393;-86
2023/10/19 10:53:52;;;;;;;1.30;1.00;;;;;;;;;;5069850;28;20036;-86
2023/10/19 10:56:23;;;;;;;2.60;1.40;;;;;;;;;;5080245;28;20116;-87
2023/10/19 10:58:49;;;;;;;1.40;1.30;;;;;;;;;;5089043;28;20020;-86
2023/10/19 11:01:15;;;;;;;4.35;1.63;;;;;;;;;;5083116;28;20060;-86
2023/10/19 11:03:42;;;;;;;1.73;1.25;;;;;;;;;;5071260;28;20033;-86
2023/10/19 11:06:11;;;;;;;1.45;1.33;;;;;;;;;;5075343;28;20028;-87
2023/10/19 11:08:38;;;;;;;2.67;1.60;;;;;;;;;;5072336;28;20027;-86
2023/10/19 11:11:04;;;;;;;2.25;1.50;;;;;;;;;;5069955;28;20060;-86
2023/10/19 11:13:32;;;;;;;1.85;1.40;;;;;;;;;;5062351;28;20317;-88
2023/10/19 11:15:58;;;;;;;2.58;1.58;;;;;;;;;;5046227;28;20066;-86
2023/10/19 11:18:35;;;;;;;2.25;1.02;;;;;;;;;;5057149;28;20096;-87
2023/10/19 11:21:05;;;;;;;2.65;1.58;;;;;;;;;;5058008;28;20498;-89
2023/10/19 11:23:52;;;;;;;1.55;1.45;;;;;;;;;;5041486;28;20051;-89
2023/10/19 11:26:20;;;;;;;1.55;1.45;;;;;;;;;;5058226;28;20048;-88
2023/10/19 11:28:50;;;;;;;2.58;1.73;;;;;;;;;;5059037;28;20124;-89
2023/10/19 11:31:22;;;;;;;2.15;1.95;;;;;;;;;;5058651;28;20517;-91
2023/10/19 11:33:50;;;;;;;2.28;1.63;;;;;;;;;;5024327;28;20043;-88
2023/10/19 11:36:17;;;;;;;1.98;1.67;;;;;;;;;;5041563;28;20055;-90
2023/10/19 11:38:47;;;;;;;4.60;1.60;;;;;;;;;;5058833;28;20104;-88
2023/10/19 11:41:16;;;;;;;2.85;1.77;;;;;;;;;;5064191;28;20045;-90
2023/10/19 11:43:46;;;;;;;1.70;1.60;;;;;;;;;;5058872;28;20037;-88
2023/10/19 11:46:12;;;;;;;2.08;1.77;;;;;;;;;;5041057;28;20046;-88
2023/10/19 11:48:39;;;;;;;1.38;1.30;;;;;;;;;;5043323;28;20116;-88
2023/10/19 11:51:06;;;;;;;1.77;1.67;;;;;;;;;;5058829;28;20029;-88
2023/10/19 11:53:36;;;;;;;2.47;2.00;;;;;;;;;;5056337;28;20190;-88
2023/10/19 11:58:37;;;;;;;9.45;1.75;;;;;;;;;;5012743;28;20046;-80
2023/10/19 12:01:05;;;;;;;2.63;1.65;;;;;;;;;;5015021;28;20041;-80
2023/10/19 12:03:31;;;;;;;3.58;2.15;;;;;;;;;;5023358;28;20037;-80
2023/10/19 12:05:56;;;;;;;2.55;1.77;;;;;;;;;;5035387;28;20108;-79
2023/10/19 12:08:22;;;;;;;2.72;1.80;;;;;;;;;;5031877;28;20466;-79
2023/10/19 12:10:49;;;;;;;3.50;1.80;;;;;;;;;;5032747;28;20037;-81
2023/10/19 12:13:16;;;;;;;1.90;1.50;;;;;;;;;;5034441;28;20109;-79
2023/10/19 12:15:41;;;;;;;3.33;1.77;;;;;;;;;;5033427;28;20057;-80
2023/10/19 12:18:08;;;;;;;5.75;1.55;;;;;;;;;;5034049;28;20013;-79
2023/10/19 12:20:35;;;;;;;3.08;1.30;;;;;;;;;;5034158;28;20021;-81
2023/10/19 12:23:01;;;;;;;6.18;1.67;;;;;;;;;;5013369;28;20033;-81
2023/10/19 12:25:29;;;;;;;1.55;1.30;;;;;;;;;;5033468;28;20030;-79
2023/10/19 12:27:56;;;;;;;1.50;1.27;;;;;;;;;;5031964;28;20029;-79
2023/10/19 12:30:22;;;;;;;2.30;1.50;;;;;;;;;;5033229;28;20035;-79
2023/10/19 12:32:51;;;;;;;1.73;1.00;;;;;;;;;;5035308;28;20025;-79
2023/10/19 12:35:19;;;;;;;0.93;0.90;;;;;;;;;;5033880;28;20030;-80
2023/10/19 12:37:51;;;;;;;4.40;1.48;;;;;;;;;;5032444;28;20041;-80
2023/10/19 12:40:29;;;;;;;1.23;1.13;;;;;;;;;;5031122;28;20063;-80
2023/10/19 12:42:55;;;;;;;1.30;1.20;;;;;;;;;;5031215;28;20048;-80
2023/10/19 12:45:24;;;;;;;5.55;1.25;;;;;;;;;;5031883;28;20444;-80
2023/10/19 12:47:51;;;;;;;3.45;1.20;;;;;;;;;;5013561;28;20307;-80
2023/10/19 12:50:23;;;;;;;1.23;1.10;;;;;;;;;;5044072;27;20769;-80
2023/10/19 12:52:52;;;;;;;2.30;1.25;;;;;;;;;;5041156;28;20041;-79
2023/10/19 12:55:20;;;;;;;1.67;1.30;;;;;;;;;;5046449;28;20060;-80
2023/10/19 12:57:45;;;;;;;1.23;1.10;;;;;;;;;;5047195;28;20025;-80
2023/10/19 13:00:23;;;;;;;1.55;1.20;;;;;;;;;;5039917;28;20009;-79
2023/10/19 13:02:49;;;;;;;4.22;1.52;;;;;;;;;;5041125;28;20030;-79
2023/10/19 13:05:18;;;;;;;3.28;1.60;;;;;;;;;;5039525;28;20116;-79
2023/10/19 13:07:44;;;;;;;4.63;1.67;;;;;;;;;;5041681;28;20037;-80
2023/10/19 13:10:11;;;;;;;2.53;1.30;;;;;;;;;;5034733;28;20038;-80
2023/10/19 13:12:36;;;;;;;2.47;1.50;;;;;;;;;;5041928;28;20171;-80
2023/10/19 13:15:12;;;;;;;2.17;1.30;;;;;;;;;;5046922;28;20135;-80
2023/10/19 13:17:38;;;;;;;2.25;1.30;;;;;;;;;;5041375;28;20124;-80
2023/10/19 13:20:15;;;;;;;1.65;1.27;;;;;;;;;;5037716;28;20049;-80
2023/10/19 13:22:41;;;;;;;4.05;1.20;;;;;;;;;;5042423;28;20116;-80
2023/10/19 13:25:09;;;;;;;1.55;1.20;;;;;;;;;;5040632;28;20056;-80
2023/10/19 13:27:35;;;;;;;2.80;1.13;;;;;;;;;;5030098;28;20113;-80
2023/10/19 13:30:01;;;;;;;1.20;1.10;;;;;;;;;;5027336;28;20050;-80
2023/10/19 13:32:30;;;;;;;1.95;1.40;;;;;;;;;;5023411;28;20042;-80
2023/10/19 13:34:55;;;;;;;2.83;1.40;;;;;;;;;;5027861;28;20100;-79
2023/10/19 13:37:20;;;;;;;6.05;1.27;;;;;;;;;;5031465;28;20025;-78
2023/10/19 13:39:46;;;;;;;1.52;1.17;;;;;;;;;;5040021;28;20029;-78
2023/10/19 13:42:11;;;;;;;2.47;1.40;;;;;;;;;;5043296;28;20021;-80
2023/10/19 13:44:37;;;;;;;2.63;1.20;;;;;;;;;;5043288;28;20274;-80
2023/10/19 13:47:04;;;;;;;1.85;1.30;;;;;;;;;;5038785;28;20030;-80
2023/10/19 13:49:31;;;;;;;3.47;1.40;;;;;;;;;;5043400;28;20041;-79
2023/10/19 13:51:57;;;;;;;1.92;1.42;;;;;;;;;;5040333;28;20040;-81
2023/10/19 13:54:23;;;;;;;3.47;1.45;;;;;;;;;;5030945;28;20041;-81
2023/10/19 13:56:48;;;;;;;2.30;1.67;;;;;;;;;;5042663;28;20398;-80
2023/10/19 13:59:15;;;;;;;4.22;1.50;;;;;;;;;;5044202;28;20064;-80
2023/10/19 14:01:41;;;;;;;1.50;1.40;;;;;;;;;;5029132;28;20060;-80
2023/10/19 14:04:06;;;;;;;1.90;1.13;;;;;;;;;;5028593;28;20063;-80
2023/10/19 14:06:31;;;;;;;1.80;1.20;;;;;;;;;;5026951;28;20135;-80
2023/10/19 14:08:56;;;;;;;5.75;1.15;;;;;;;;;;5027307;28;20013;-80
2023/10/19 14:11:23;;;;;;;2.55;1.30;;;;;;;;;;5032036;28;20045;-80
2023/10/19 14:13:50;;;;;;;2.63;1.52;;;;;;;;;;5027266;28;20025;-80
2023/10/19 14:16:15;;;;;;;2.15;1.50;;;;;;;;;;5027777;28;20433;-78
2023/10/19 14:18:43;;;;;;;1.98;1.58;;;;;;;;;;5027327;28;20091;-81
2023/10/19 14:21:14;;;;;;;1.60;1.50;;;;;;;;;;5029774;28;20029;-80
2023/10/19 14:23:40;;;;;;;9.40;1.90;;;;;;;;;;5041668;28;20029;-79
2023/10/19 14:26:06;;;;;;;3.97;1.45;;;;;;;;;;5024905;28;20034;-79
2023/10/19 14:28:31;;;;;;;1.70;1.50;;;;;;;;;;5023104;28;20056;-80
2023/10/19 14:30:57;;;;;;;3.97;1.55;;;;;;;;;;5018575;28;20113;-80
2023/10/19 14:33:22;;;;;;;3.35;1.80;;;;;;;;;;5030553;28;20037;-79
2023/10/19 14:35:47;;;;;;;3.42;1.90;;;;;;;;;;5026125;28;20100;-79
2023/10/19 14:38:14;;;;;;;5.00;2.60;;;;;;;;;;5030489;28;20176;-79
2023/10/19 14:40:44;;;;;;;2.08;1.70;;;;;;;;;;5027047;28;20049;-80
2023/10/19 14:43:10;;;;;;;3.03;2.20;;;;;;;;;;5035623;28;20148;-81
2023/10/19 14:45:36;;;;;;;1.85;1.73;;;;;;;;;;5030909;28;20075;-77
2023/10/19 14:48:08;;;;;;;1.88;1.70;;;;;;;;;;5033589;28;20021;-77
2023/10/19 14:50:34;;;;;;;3.22;1.60;;;;;;;;;;5034092;28;20057;-77
2023/10/19 14:53:00;;;;;;;8.50;2.03;;;;;;;;;;5029205;28;20058;-77
2023/10/19 14:55:26;;;;;;;2.28;2.00;;;;;;;;;;5012591;28;20072;-77
2023/10/19 14:57:53;;;;;;;3.42;2.08;;;;;;;;;;5013249;28;20061;-78
2023/10/19 15:00:29;;;;;;;2.72;2.05;;;;;;;;;;5013105;28;20073;-77
2023/10/19 15:02:56;;;;;;;4.90;1.80;;;;;;;;;;5009889;28;20064;-79
2023/10/19 15:05:24;;;;;;;9.77;2.00;;;;;;;;;;5009345;28;20049;-80
2023/10/19 15:07:55;;;;;;;1.73;1.55;;;;;;;;;;5027946;28;20038;-79
2023/10/19 15:10:29;;;;;;;1.90;1.70;;;;;;;;;;5029791;28;20075;-79
2023/10/19 15:12:55;;;;;;;3.78;1.70;;;;;;;;;;5032915;28;20041;-78
2023/10/19 15:15:27;;;;;;;2.90;1.75;;;;;;;;;;5033235;28;20029;-81
2023/10/19 15:17:53;;;;;;;2.63;1.60;;;;;;;;;;5034029;28;20029;-79